createdAt,value
2019-01-28T00:00:11.491Z,4.28
2019-01-28T00:01:11.477Z,4.27
2019-01-28T00:02:11.467Z,4.18
2019-01-28T00:03:11.455Z,4.26
2019-01-28T00:04:11.466Z,4.31
2019-01-28T00:05:11.436Z,4.13
2019-01-28T00:06:11.422Z,4.26
2019-01-28T00:07:11.410Z,4.28
2019-01-28T00:08:11.401Z,4.23
2019-01-28T00:09:11.415Z,4.34
2019-01-28T00:10:11.400Z,4.38
2019-01-28T00:11:11.365Z,4.36
2019-01-28T00:12:11.357Z,4.42
2019-01-28T00:13:11.347Z,4.36
2019-01-28T00:14:11.353Z,4.42
2019-01-28T00:15:11.322Z,4.36
2019-01-28T00:16:11.309Z,4.41
2019-01-28T00:17:11.300Z,4.39
2019-01-28T00:18:11.289Z,4.43
2019-01-28T00:19:11.295Z,4.42
2019-01-28T00:20:11.265Z,4.39
2019-01-28T00:21:11.253Z,4.36
2019-01-28T00:22:11.243Z,4.34
2019-01-28T00:23:11.234Z,4.39
2019-01-28T00:24:11.245Z,4.35
2019-01-28T00:25:11.209Z,4.38
2019-01-28T00:26:11.212Z,4.35
2019-01-28T00:27:11.187Z,4.36
2019-01-28T00:28:11.175Z,4.35
2019-01-28T00:29:11.197Z,4.36
2019-01-28T00:30:11.153Z,4.27
2019-01-28T00:31:11.144Z,4.38
2019-01-28T00:32:11.131Z,4.28
2019-01-28T00:33:11.125Z,4.30
2019-01-28T00:34:11.109Z,4.34
2019-01-28T00:35:11.123Z,4.31
2019-01-28T00:36:11.092Z,4.31
2019-01-28T00:37:11.076Z,4.31
2019-01-28T00:38:11.065Z,4.35
2019-01-28T00:39:11.053Z,4.31
2019-01-28T00:40:11.060Z,4.30
2019-01-28T00:41:11.030Z,4.39
2019-01-28T00:42:11.026Z,4.34
2019-01-28T00:43:11.010Z,4.31
2019-01-28T00:44:10.998Z,4.27
2019-01-28T00:45:11.011Z,4.30
2019-01-28T00:46:10.974Z,4.35
2019-01-28T00:47:10.969Z,4.27
2019-01-28T00:48:10.953Z,4.24
2019-01-28T00:49:10.946Z,4.28
2019-01-28T00:50:10.963Z,4.35
2019-01-28T00:51:10.922Z,4.30
2019-01-28T00:52:10.909Z,4.27
2019-01-28T00:53:10.906Z,4.26
2019-01-28T00:54:10.888Z,4.28
2019-01-28T00:55:10.915Z,4.28
2019-01-28T00:56:10.863Z,4.26
2019-01-28T00:57:10.853Z,4.27
2019-01-28T00:58:10.843Z,4.24
2019-01-28T00:59:10.875Z,4.28
2019-01-28T01:00:10.823Z,4.26
2019-01-28T01:01:10.826Z,4.27
2019-01-28T01:02:10.797Z,4.23
2019-01-28T01:03:10.785Z,4.26
2019-01-28T01:04:10.774Z,4.27
2019-01-28T01:05:10.763Z,4.26
2019-01-28T01:06:10.769Z,4.26
2019-01-28T01:07:10.742Z,4.27
2019-01-28T01:08:10.729Z,4.24
2019-01-28T01:09:10.718Z,4.28
2019-01-28T01:10:10.708Z,4.35
2019-01-28T01:11:10.715Z,4.34
2019-01-28T01:12:10.689Z,4.23
2019-01-28T01:13:10.671Z,4.24
2019-01-28T01:14:10.660Z,4.26
2019-01-28T01:15:10.649Z,4.30
2019-01-28T01:16:10.657Z,4.28
2019-01-28T01:17:10.630Z,4.28
2019-01-28T01:18:10.616Z,4.27
2019-01-28T01:19:10.604Z,4.23
2019-01-28T01:20:10.592Z,4.34
2019-01-28T01:21:10.602Z,4.31
2019-01-28T01:22:10.575Z,4.34
2019-01-28T01:23:10.559Z,4.26
2019-01-28T01:24:10.548Z,4.24
2019-01-28T01:25:10.540Z,4.28
2019-01-28T01:26:10.558Z,4.21
2019-01-28T01:27:10.515Z,4.23
2019-01-28T01:28:10.506Z,4.18
2019-01-28T01:29:10.493Z,4.23
2019-01-28T01:30:10.482Z,4.18
2019-01-28T01:31:10.470Z,4.21
2019-01-28T01:32:10.478Z,4.20
2019-01-28T01:33:10.448Z,4.18
2019-01-28T01:34:10.436Z,4.24
2019-01-28T01:35:10.428Z,4.17
2019-01-28T01:36:10.417Z,4.17
2019-01-28T01:37:10.424Z,4.18
2019-01-28T01:38:10.391Z,4.21
2019-01-28T01:39:10.385Z,4.17
2019-01-28T01:40:10.370Z,4.12
2019-01-28T01:41:10.373Z,4.13
2019-01-28T01:42:10.368Z,4.12
2019-01-28T01:43:10.352Z,4.08
2019-01-28T01:44:10.328Z,4.13
2019-01-28T01:45:10.329Z,4.12
2019-01-28T01:46:10.302Z,4.13
2019-01-28T01:47:10.313Z,4.03
2019-01-28T01:48:10.279Z,4.10
2019-01-28T01:49:10.284Z,4.06
2019-01-28T01:50:10.258Z,4.12
2019-01-28T01:51:10.246Z,4.03
2019-01-28T01:52:10.256Z,4.08
2019-01-28T01:53:10.224Z,4.16
2019-01-28T01:54:10.212Z,4.09
2019-01-28T01:55:10.201Z,4.05
2019-01-28T01:56:10.189Z,4.10
2019-01-28T01:57:10.241Z,4.06
2019-01-28T01:58:10.169Z,4.05
2019-01-28T01:59:10.167Z,4.02
2019-01-28T02:00:10.145Z,3.96
2019-01-28T02:01:10.134Z,4.05
2019-01-28T02:02:10.122Z,3.99
2019-01-28T02:03:10.149Z,4.02
2019-01-28T02:04:10.103Z,3.92
2019-01-28T02:05:10.104Z,3.91
2019-01-28T02:06:10.081Z,3.99
2019-01-28T02:07:10.070Z,3.96
2019-01-28T02:08:10.077Z,3.90
2019-01-28T02:09:10.045Z,4.00
2019-01-28T02:10:10.035Z,4.05
2019-01-28T02:11:10.024Z,3.96
2019-01-28T02:12:10.013Z,4.00
2019-01-28T02:13:10.018Z,4.10
2019-01-28T02:14:09.988Z,4.03
2019-01-28T02:15:09.976Z,4.03
2019-01-28T02:16:09.967Z,4.08
2019-01-28T02:17:09.956Z,4.02
2019-01-28T02:18:09.977Z,3.99
2019-01-28T02:19:09.932Z,3.92
2019-01-28T02:20:09.928Z,3.92
2019-01-28T02:21:09.917Z,3.91
2019-01-28T02:22:09.899Z,3.92
2019-01-28T02:23:09.887Z,3.94
2019-01-28T02:24:09.894Z,3.88
2019-01-28T02:25:09.864Z,3.90
2019-01-28T02:26:09.854Z,3.92
2019-01-28T02:27:09.843Z,3.88
2019-01-28T02:28:09.831Z,3.98
2019-01-28T02:29:09.841Z,3.98
2019-01-28T02:30:09.811Z,3.92
2019-01-28T02:31:09.802Z,3.88
2019-01-28T02:32:09.788Z,3.91
2019-01-28T02:33:09.774Z,3.98
2019-01-28T02:34:09.801Z,3.94
2019-01-28T02:35:09.757Z,4.03
2019-01-28T02:36:09.742Z,4.00
2019-01-28T02:37:09.745Z,3.98
2019-01-28T02:38:09.733Z,3.98
2019-01-28T02:39:09.707Z,3.94
2019-01-28T02:40:09.715Z,3.98
2019-01-28T02:41:09.691Z,3.92
2019-01-28T02:42:09.676Z,3.98
2019-01-28T02:43:09.663Z,4.02
2019-01-28T02:44:09.655Z,4.06
2019-01-28T02:45:09.663Z,4.00
2019-01-28T02:46:09.630Z,3.88
2019-01-28T02:47:09.619Z,4.02
2019-01-28T02:48:09.609Z,4.00
2019-01-28T02:49:09.598Z,3.99
2019-01-28T02:50:09.611Z,3.96
2019-01-28T02:51:09.576Z,3.98
2019-01-28T02:52:09.566Z,3.91
2019-01-28T02:53:09.554Z,3.99
2019-01-28T02:54:09.562Z,3.98
2019-01-28T02:55:09.563Z,3.98
2019-01-28T02:56:09.525Z,3.98
2019-01-28T02:57:09.514Z,3.94
2019-01-28T02:58:09.499Z,4.03
2019-01-28T02:59:09.486Z,3.92
2019-01-28T03:00:09.496Z,3.98
2019-01-28T03:01:09.464Z,3.91
2019-01-28T03:02:09.455Z,3.90
2019-01-28T03:03:09.443Z,3.92
2019-01-28T03:04:09.431Z,3.84
2019-01-28T03:05:09.444Z,3.90
2019-01-28T03:06:09.410Z,3.85
2019-01-28T03:07:09.404Z,3.78
2019-01-28T03:08:09.388Z,3.73
2019-01-28T03:09:09.376Z,3.70
2019-01-28T03:10:09.365Z,3.72
2019-01-28T03:11:10.522Z,3.69
2019-01-28T03:12:09.345Z,3.70
2019-01-28T03:13:09.337Z,3.70
2019-01-28T03:14:09.319Z,3.67
2019-01-28T03:15:09.309Z,3.67
2019-01-28T03:16:09.315Z,3.73
2019-01-28T03:17:09.288Z,3.67
2019-01-28T03:18:09.282Z,3.64
2019-01-28T03:19:09.262Z,3.73
2019-01-28T03:20:09.268Z,3.67
2019-01-28T03:21:09.272Z,3.67
2019-01-28T03:22:09.233Z,3.67
2019-01-28T03:23:09.221Z,3.56
2019-01-28T03:24:09.208Z,3.52
2019-01-28T03:25:09.197Z,3.52
2019-01-28T03:26:09.185Z,3.51
2019-01-28T03:27:09.195Z,3.59
2019-01-28T03:28:09.164Z,3.54
2019-01-28T03:29:09.154Z,3.54
2019-01-28T03:30:09.159Z,3.54
2019-01-28T03:31:09.133Z,3.56
2019-01-28T03:32:09.141Z,3.56
2019-01-28T03:33:09.135Z,3.62
2019-01-28T03:34:09.096Z,3.52
2019-01-28T03:35:09.085Z,3.60
2019-01-28T03:36:09.075Z,3.51
2019-01-28T03:37:09.083Z,3.54
2019-01-28T03:38:09.052Z,3.54
2019-01-28T03:39:09.047Z,3.51
2019-01-28T03:40:09.030Z,3.56
2019-01-28T03:41:09.021Z,3.59
2019-01-28T03:42:09.060Z,3.60
2019-01-28T03:43:09.001Z,3.60
2019-01-28T03:44:08.988Z,3.59
2019-01-28T03:45:08.980Z,3.60
2019-01-28T03:46:09.860Z,3.56
2019-01-28T03:47:08.958Z,3.54
2019-01-28T03:48:08.963Z,3.59
2019-01-28T03:49:08.932Z,3.55
2019-01-28T03:50:08.920Z,3.63
2019-01-28T03:51:08.910Z,3.52
2019-01-28T03:52:08.903Z,3.56
2019-01-28T03:53:08.912Z,3.55
2019-01-28T03:54:08.875Z,3.55
2019-01-28T03:55:08.865Z,3.60
2019-01-28T03:56:08.854Z,3.56
2019-01-28T03:57:08.845Z,3.59
2019-01-28T03:58:08.857Z,3.54
2019-01-28T03:59:08.819Z,3.55
2019-01-28T04:00:08.810Z,3.55
2019-01-28T04:01:08.805Z,3.48
2019-01-28T04:02:08.792Z,3.46
2019-01-28T04:03:08.798Z,3.35
2019-01-28T04:04:08.770Z,3.44
2019-01-28T04:05:08.758Z,3.29
2019-01-28T04:06:08.744Z,3.32
2019-01-28T04:07:08.736Z,3.33
2019-01-28T04:08:08.750Z,3.41
2019-01-28T04:09:08.713Z,3.44
2019-01-28T04:10:08.704Z,3.35
2019-01-28T04:11:08.691Z,3.33
2019-01-28T04:12:08.680Z,3.33
2019-01-28T04:13:08.684Z,3.30
2019-01-28T04:14:08.677Z,3.33
2019-01-28T04:15:08.646Z,3.35
2019-01-28T04:16:08.638Z,3.36
2019-01-28T04:17:08.627Z,3.37
2019-01-28T04:18:08.612Z,3.41
2019-01-28T04:19:08.621Z,3.20
2019-01-28T04:20:08.590Z,3.32
2019-01-28T04:21:08.580Z,3.18
2019-01-28T04:22:08.572Z,3.29
2019-01-28T04:23:08.563Z,3.18
2019-01-28T04:24:08.578Z,3.20
2019-01-28T04:25:08.535Z,3.20
2019-01-28T04:26:08.525Z,3.17
2019-01-28T04:27:08.519Z,3.18
2019-01-28T04:28:08.501Z,3.25
2019-01-28T04:29:08.510Z,3.23
2019-01-28T04:30:08.481Z,3.17
2019-01-28T04:31:08.492Z,3.23
2019-01-28T04:32:08.458Z,3.17
2019-01-28T04:33:08.456Z,3.23
2019-01-28T04:34:08.454Z,3.23
2019-01-28T04:35:08.424Z,3.23
2019-01-28T04:36:08.413Z,3.11
2019-01-28T04:37:08.403Z,3.20
2019-01-28T04:38:08.389Z,3.14
2019-01-28T04:39:08.427Z,3.05
2019-01-28T04:40:08.379Z,3.12
2019-01-28T04:41:08.362Z,3.04
2019-01-28T04:42:08.346Z,3.07
2019-01-28T04:43:08.334Z,3.00
2019-01-28T04:44:08.325Z,2.96
2019-01-28T04:45:08.335Z,3.02
2019-01-28T04:46:08.316Z,2.99
2019-01-28T04:47:08.291Z,2.90
2019-01-28T04:48:08.327Z,2.96
2019-01-28T04:49:08.271Z,3.02
2019-01-28T04:50:08.279Z,3.00
2019-01-28T04:51:08.246Z,2.96
2019-01-28T04:52:08.238Z,2.97
2019-01-28T04:53:08.224Z,3.00
2019-01-28T04:54:08.214Z,3.00
2019-01-28T04:55:08.220Z,2.97
2019-01-28T04:56:08.191Z,3.08
2019-01-28T04:57:08.180Z,2.99
2019-01-28T04:58:08.171Z,2.97
2019-01-28T04:59:08.160Z,2.99
2019-01-28T05:00:08.165Z,3.00
2019-01-28T05:01:08.137Z,2.87
2019-01-28T05:02:08.124Z,2.94
2019-01-28T05:03:08.127Z,2.89
2019-01-28T05:04:08.103Z,3.00
2019-01-28T05:05:08.130Z,3.02
2019-01-28T05:06:08.080Z,3.02
2019-01-28T05:07:08.070Z,2.99
2019-01-28T05:08:08.057Z,2.97
2019-01-28T05:09:08.055Z,2.93
2019-01-28T05:10:08.044Z,2.94
2019-01-28T05:11:08.041Z,3.02
2019-01-28T05:12:08.014Z,3.04
2019-01-28T05:13:08.002Z,3.07
2019-01-28T05:14:07.993Z,3.11
2019-01-28T05:15:07.980Z,3.11
2019-01-28T05:16:07.987Z,3.11
2019-01-28T05:17:07.957Z,3.09
2019-01-28T05:18:07.945Z,3.14
2019-01-28T05:19:07.935Z,3.17
2019-01-28T05:20:07.924Z,3.22
2019-01-28T05:21:07.935Z,3.22
2019-01-28T05:22:07.901Z,3.18
2019-01-28T05:23:07.893Z,3.15
2019-01-28T05:24:07.888Z,3.18
2019-01-28T05:25:07.871Z,3.17
2019-01-28T05:26:07.877Z,3.18
2019-01-28T05:27:07.846Z,3.14
2019-01-28T05:28:07.843Z,3.14
2019-01-28T05:29:07.824Z,3.22
2019-01-28T05:30:07.814Z,3.12
2019-01-28T05:31:07.824Z,3.23
2019-01-28T05:32:07.793Z,3.15
2019-01-28T05:33:16.247Z,3.20
2019-01-28T05:34:07.773Z,3.08
2019-01-28T05:35:07.759Z,3.14
2019-01-28T05:36:07.772Z,3.15
2019-01-28T05:37:07.757Z,3.02
2019-01-28T05:38:07.735Z,3.08
2019-01-28T05:39:07.769Z,3.00
2019-01-28T05:40:07.703Z,3.04
2019-01-28T05:41:07.709Z,3.18
2019-01-28T05:42:07.733Z,3.14
2019-01-28T05:43:07.670Z,3.12
2019-01-28T05:44:07.657Z,3.09
2019-01-28T05:45:07.713Z,3.18
2019-01-28T05:46:07.701Z,3.18
2019-01-28T05:47:07.645Z,3.14
2019-01-28T05:48:07.614Z,3.09
2019-01-28T05:49:07.602Z,3.11
2019-01-28T05:50:07.591Z,3.15
2019-01-28T05:51:07.579Z,3.12
2019-01-28T05:52:07.588Z,3.15
2019-01-28T05:53:16.241Z,3.08
2019-01-28T05:54:07.548Z,3.15
2019-01-28T05:55:07.536Z,3.12
2019-01-28T05:56:07.524Z,3.18
2019-01-28T05:57:08.683Z,3.18
2019-01-28T05:58:07.505Z,3.14
2019-01-28T05:59:07.490Z,3.14
2019-01-28T06:00:07.480Z,3.15
2019-01-28T06:01:07.472Z,3.14
2019-01-28T06:02:07.480Z,3.22
2019-01-28T06:03:07.449Z,3.11
2019-01-28T06:04:07.434Z,3.08
2019-01-28T06:05:07.426Z,3.09
2019-01-28T06:06:07.415Z,3.12
2019-01-28T06:07:07.421Z,3.08
2019-01-28T06:08:07.395Z,3.05
2019-01-28T06:09:07.381Z,3.07
2019-01-28T06:10:07.366Z,3.07
2019-01-28T06:11:07.358Z,2.94
2019-01-28T06:12:07.370Z,3.07
2019-01-28T06:13:07.338Z,2.94
2019-01-28T06:14:07.323Z,2.93
2019-01-28T06:15:07.312Z,2.94
2019-01-28T06:16:07.300Z,2.96
2019-01-28T06:17:07.309Z,2.99
2019-01-28T06:18:07.279Z,3.04
2019-01-28T06:19:07.420Z,3.02
2019-01-28T06:20:07.256Z,3.04
2019-01-28T06:21:07.254Z,3.04
2019-01-28T06:22:07.253Z,3.05
2019-01-28T06:23:07.224Z,2.97
2019-01-28T06:24:07.210Z,2.94
2019-01-28T06:25:07.200Z,2.97
2019-01-28T06:26:07.187Z,3.00
2019-01-28T06:27:07.195Z,3.02
2019-01-28T06:28:07.166Z,3.07
2019-01-28T06:29:07.159Z,3.02
2019-01-28T06:30:07.144Z,2.94
2019-01-28T06:31:07.133Z,3.00
2019-01-28T06:32:07.139Z,2.99
2019-01-28T06:33:07.110Z,2.99
2019-01-28T06:34:07.102Z,2.84
2019-01-28T06:35:07.090Z,2.90
2019-01-28T06:36:07.081Z,2.94
2019-01-28T06:37:07.083Z,2.89
2019-01-28T06:38:07.056Z,2.94
2019-01-28T06:39:07.042Z,3.07
2019-01-28T06:40:07.032Z,2.91
2019-01-28T06:41:07.022Z,2.90
2019-01-28T06:42:07.028Z,2.93
2019-01-28T06:43:07.004Z,2.91
2019-01-28T06:44:06.990Z,2.91
2019-01-28T06:45:06.982Z,2.91
2019-01-28T06:46:06.965Z,2.93
2019-01-28T06:47:16.699Z,2.89
2019-01-28T06:48:06.945Z,2.91
2019-01-28T06:49:06.930Z,2.86
2019-01-28T06:50:06.921Z,2.96
2019-01-28T06:51:06.910Z,2.87
2019-01-28T06:52:06.916Z,2.94
2019-01-28T06:53:06.886Z,2.90
2019-01-28T06:54:06.877Z,2.96
2019-01-28T06:55:06.865Z,2.97
2019-01-28T06:56:06.854Z,2.90
2019-01-28T06:57:06.861Z,2.87
2019-01-28T06:58:06.856Z,2.82
2019-01-28T06:59:06.828Z,2.81
2019-01-28T07:00:06.808Z,2.79
2019-01-28T07:01:06.883Z,2.75
2019-01-28T07:02:06.811Z,2.72
2019-01-28T07:03:06.777Z,2.72
2019-01-28T07:04:06.766Z,2.76
2019-01-28T07:05:06.755Z,2.79
2019-01-28T07:06:06.741Z,2.65
2019-01-28T07:07:06.749Z,2.65
2019-01-28T07:08:06.723Z,2.72
2019-01-28T07:09:06.710Z,2.72
2019-01-28T07:10:06.699Z,2.61
2019-01-28T07:11:15.053Z,2.72
2019-01-28T07:12:06.712Z,2.54
2019-01-28T07:13:06.664Z,2.65
2019-01-28T07:14:06.653Z,2.68
2019-01-28T07:15:06.641Z,2.63
2019-01-28T07:16:06.631Z,2.61
2019-01-28T07:17:06.638Z,2.57
2019-01-28T07:18:06.615Z,2.72
2019-01-28T07:19:06.603Z,2.66
2019-01-28T07:20:06.587Z,2.66
2019-01-28T07:21:06.581Z,2.72
2019-01-28T07:22:06.584Z,2.72
2019-01-28T07:23:06.554Z,2.66
2019-01-28T07:24:06.545Z,2.63
2019-01-28T07:25:06.534Z,2.71
2019-01-28T07:26:06.526Z,2.65
2019-01-28T07:27:06.530Z,2.68
2019-01-28T07:28:06.501Z,2.65
2019-01-28T07:29:06.488Z,2.71
2019-01-28T07:30:06.478Z,2.68
2019-01-28T07:31:06.466Z,2.71
2019-01-28T07:32:06.475Z,2.73
2019-01-28T07:33:06.447Z,2.84
2019-01-28T07:34:06.434Z,2.76
2019-01-28T07:35:06.423Z,2.72
2019-01-28T07:36:06.412Z,2.71
2019-01-28T07:37:06.421Z,2.72
2019-01-28T07:38:06.390Z,2.79
2019-01-28T07:39:06.380Z,2.76
2019-01-28T07:40:06.381Z,2.78
2019-01-28T07:41:06.357Z,2.87
2019-01-28T07:42:06.365Z,2.87
2019-01-28T07:43:06.338Z,2.82
2019-01-28T07:44:06.324Z,2.86
2019-01-28T07:45:06.314Z,2.81
2019-01-28T07:46:06.302Z,2.93
2019-01-28T07:47:06.321Z,2.89
2019-01-28T07:48:06.279Z,2.91
2019-01-28T07:49:06.268Z,2.94
2019-01-28T07:50:06.259Z,2.87
2019-01-28T07:51:06.252Z,2.99
2019-01-28T07:52:06.235Z,2.97
2019-01-28T07:53:06.243Z,2.91
2019-01-28T07:54:06.214Z,3.02
2019-01-28T07:55:06.203Z,2.96
2019-01-28T07:56:06.196Z,2.99
2019-01-28T07:57:06.181Z,3.04
2019-01-28T07:58:06.193Z,3.08
2019-01-28T07:59:06.159Z,3.02
2019-01-28T08:00:06.151Z,3.11
2019-01-28T08:01:06.140Z,3.07
2019-01-28T08:02:06.127Z,3.00
2019-01-28T08:03:06.137Z,3.09
2019-01-28T08:04:06.105Z,3.09
2019-01-28T08:05:06.093Z,3.11
2019-01-28T08:06:06.082Z,3.15
2019-01-28T08:07:06.072Z,3.05
2019-01-28T08:08:06.084Z,3.17
2019-01-28T08:09:06.049Z,3.17
2019-01-28T08:10:06.042Z,3.20
2019-01-28T08:11:06.026Z,3.23
2019-01-28T08:12:06.017Z,3.29
2019-01-28T08:13:06.025Z,3.37
2019-01-28T08:14:06.008Z,3.35
2019-01-28T08:15:05.993Z,3.35
2019-01-28T08:16:05.970Z,3.41
2019-01-28T08:17:05.964Z,3.35
2019-01-28T08:18:10.642Z,3.30
2019-01-28T08:19:05.939Z,3.45
2019-01-28T08:20:11.396Z,3.45
2019-01-28T08:21:05.925Z,3.45
2019-01-28T08:22:05.905Z,3.42
2019-01-28T08:23:05.919Z,3.49
2019-01-28T08:24:05.885Z,3.48
2019-01-28T08:25:05.880Z,3.46
2019-01-28T08:26:05.860Z,3.51
2019-01-28T08:27:05.848Z,3.54
2019-01-28T08:28:05.862Z,3.54
2019-01-28T08:29:05.829Z,3.56
2019-01-28T08:30:05.815Z,3.59
2019-01-28T08:31:05.805Z,3.52
2019-01-28T08:32:05.793Z,3.54
2019-01-28T08:33:05.803Z,3.56
2019-01-28T08:34:05.773Z,3.66
2019-01-28T08:35:05.760Z,3.55
2019-01-28T08:36:05.749Z,3.52
2019-01-28T08:37:05.738Z,3.63
2019-01-28T08:38:05.750Z,3.63
2019-01-28T08:39:05.717Z,3.67
2019-01-28T08:40:05.703Z,3.72
2019-01-28T08:41:05.693Z,3.70
2019-01-28T08:42:05.683Z,3.72
2019-01-28T08:43:05.699Z,3.67
2019-01-28T08:44:05.663Z,3.63
2019-01-28T08:45:05.647Z,3.67
2019-01-28T08:46:05.638Z,3.70
2019-01-28T08:47:05.626Z,3.67
2019-01-28T08:48:05.634Z,3.70
2019-01-28T08:49:05.605Z,3.69
2019-01-28T08:50:05.593Z,3.66
2019-01-28T08:51:05.582Z,3.67
2019-01-28T08:52:05.570Z,3.72
2019-01-28T08:53:05.579Z,3.72
2019-01-28T08:54:05.547Z,3.70
2019-01-28T08:55:05.536Z,3.70
2019-01-28T08:56:05.525Z,3.69
2019-01-28T08:57:05.516Z,3.74
2019-01-28T08:58:05.522Z,3.81
2019-01-28T08:59:05.498Z,3.81
2019-01-28T09:00:05.482Z,3.82
2019-01-28T09:01:05.475Z,3.82
2019-01-28T09:02:05.458Z,3.87
2019-01-28T09:03:05.471Z,3.90
2019-01-28T09:04:05.437Z,3.87
2019-01-28T09:05:05.424Z,3.94
2019-01-28T09:06:05.416Z,3.88
2019-01-28T09:07:05.404Z,3.91
2019-01-28T09:08:05.410Z,3.90
2019-01-28T09:09:05.379Z,3.87
2019-01-28T09:10:05.368Z,3.78
2019-01-28T09:11:05.360Z,3.85
2019-01-28T09:12:05.349Z,3.87
2019-01-28T09:13:05.359Z,3.81
2019-01-28T09:14:05.323Z,3.87
2019-01-28T09:15:05.312Z,3.87
2019-01-28T09:16:05.302Z,3.92
2019-01-28T09:17:05.291Z,3.92
2019-01-28T09:18:05.303Z,3.91
2019-01-28T09:19:05.271Z,3.99
2019-01-28T09:20:05.259Z,3.98
2019-01-28T09:21:05.246Z,4.02
2019-01-28T09:22:05.234Z,3.91
2019-01-28T09:23:05.243Z,3.98
2019-01-28T09:24:05.218Z,3.98
2019-01-28T09:25:05.201Z,4.00
2019-01-28T09:26:06.598Z,3.96
2019-01-28T09:27:05.179Z,4.03
2019-01-28T09:28:05.191Z,3.94
2019-01-28T09:29:05.158Z,3.94
2019-01-28T09:30:05.146Z,3.84
2019-01-28T09:31:05.135Z,3.80
2019-01-28T09:32:05.124Z,3.90
2019-01-28T09:33:05.131Z,3.90
2019-01-28T09:34:05.101Z,3.96
2019-01-28T09:35:05.098Z,3.96
2019-01-28T09:36:05.078Z,3.84
2019-01-28T09:37:05.071Z,3.85
2019-01-28T09:38:05.076Z,3.82
2019-01-28T09:39:05.047Z,3.87
2019-01-28T09:40:05.039Z,3.80
2019-01-28T09:41:05.022Z,3.78
2019-01-28T09:42:05.013Z,3.76
2019-01-28T09:43:05.034Z,3.81
2019-01-28T09:44:04.992Z,3.82
2019-01-28T09:45:04.985Z,3.87
2019-01-28T09:46:04.974Z,3.82
2019-01-28T09:47:04.957Z,3.80
2019-01-28T09:48:04.970Z,3.85
2019-01-28T09:49:04.956Z,3.88
2019-01-28T09:50:04.925Z,3.92
2019-01-28T09:51:04.915Z,3.82
2019-01-28T09:52:04.903Z,3.82
2019-01-28T09:53:04.892Z,3.94
2019-01-28T09:54:04.898Z,3.81
2019-01-28T09:55:04.867Z,3.87
2019-01-28T09:56:04.858Z,3.92
2019-01-28T09:57:04.844Z,3.96
2019-01-28T09:58:04.838Z,3.94
2019-01-28T09:59:04.840Z,3.99
2019-01-28T10:00:04.816Z,3.94
2019-01-28T10:01:04.798Z,4.05
2019-01-28T10:02:04.791Z,4.13
2019-01-28T10:03:04.778Z,4.13
2019-01-28T10:04:04.821Z,4.16
2019-01-28T10:05:04.756Z,4.16
2019-01-28T10:06:04.744Z,4.16
2019-01-28T10:07:04.735Z,4.18
2019-01-28T10:08:04.721Z,4.23
2019-01-28T10:09:10.039Z,4.17
2019-01-28T10:10:04.701Z,4.21
2019-01-28T10:11:04.690Z,4.17
2019-01-28T10:12:04.681Z,4.18
2019-01-28T10:13:57.095Z,4.21
2019-01-28T10:14:57.059Z,4.24
2019-01-28T10:15:57.054Z,4.24
2019-01-28T10:16:57.044Z,4.23
2019-01-28T10:17:57.029Z,4.17
2019-01-28T10:18:57.037Z,4.28
2019-01-28T10:19:57.008Z,4.23
2019-01-28T10:20:56.993Z,4.28
2019-01-28T10:21:56.986Z,4.18
2019-01-28T10:22:56.970Z,4.28
2019-01-28T10:23:56.982Z,4.23
2019-01-28T10:24:56.948Z,4.18
2019-01-28T10:25:57.859Z,4.17
2019-01-28T10:26:56.930Z,4.10
2019-01-28T10:27:56.915Z,4.02
2019-01-28T10:28:56.925Z,4.05
2019-01-28T10:29:56.891Z,4.08
2019-01-28T10:30:56.880Z,3.98
2019-01-28T10:31:56.874Z,4.12
2019-01-28T10:32:56.864Z,4.16
2019-01-28T10:33:56.869Z,4.08
2019-01-28T10:34:56.837Z,4.12
2019-01-28T10:35:56.826Z,4.02
2019-01-28T10:36:56.823Z,4.12
2019-01-28T10:37:56.814Z,4.13
2019-01-28T10:38:56.832Z,4.13
2019-01-28T10:39:56.780Z,4.20
2019-01-28T10:40:56.770Z,4.16
2019-01-28T10:41:56.757Z,4.17
2019-01-28T10:42:56.752Z,4.23
2019-01-28T10:43:56.756Z,4.18
2019-01-28T10:44:56.727Z,4.20
2019-01-28T10:45:56.713Z,4.20
2019-01-28T10:46:56.703Z,4.24
2019-01-28T10:48:00.611Z,4.28
2019-01-28T10:48:56.701Z,4.23
2019-01-28T10:49:56.668Z,4.23
2019-01-28T10:50:56.657Z,4.24
2019-01-28T10:51:58.136Z,4.26
2019-01-28T10:52:56.637Z,4.23
2019-01-28T10:53:56.648Z,4.17
2019-01-28T10:54:56.616Z,4.26
2019-01-28T10:55:56.602Z,4.24
2019-01-28T10:56:56.597Z,4.26
2019-01-28T10:57:56.579Z,4.18
2019-01-28T10:58:56.596Z,4.24
2019-01-28T10:59:56.561Z,4.21
2019-01-28T11:00:56.551Z,4.16
2019-01-28T11:01:56.534Z,4.13
2019-01-28T11:02:56.526Z,4.20
2019-01-28T11:03:56.533Z,4.20
2019-01-28T11:04:56.502Z,4.06
2019-01-28T11:05:56.496Z,4.13
2019-01-28T11:06:56.479Z,4.03
2019-01-28T11:07:56.467Z,3.96
2019-01-28T11:08:56.476Z,3.90
2019-01-28T11:09:56.503Z,3.92
2019-01-28T11:10:56.433Z,3.90
2019-01-28T11:11:56.509Z,3.82
2019-01-28T11:12:56.524Z,3.87
2019-01-28T11:13:56.520Z,3.73
2019-01-28T11:14:56.494Z,3.72
2019-01-28T11:15:56.388Z,3.69
2019-01-28T11:16:56.390Z,3.69
2019-01-28T11:17:56.365Z,3.66
2019-01-28T11:18:57.822Z,3.64
2019-01-28T11:19:56.373Z,3.69
2019-01-28T11:20:56.339Z,3.69
2019-01-28T11:21:56.334Z,3.72
2019-01-28T11:22:56.300Z,3.70
2019-01-28T11:23:56.377Z,3.54
2019-01-28T11:24:56.396Z,3.66
2019-01-28T11:25:56.319Z,3.52
2019-01-28T11:26:56.360Z,3.67
2019-01-28T11:27:56.367Z,3.66
2019-01-28T11:28:56.364Z,3.76
2019-01-28T11:29:56.327Z,3.70
2019-01-28T11:30:56.338Z,3.70
2019-01-28T11:31:56.277Z,3.55
2019-01-28T11:32:56.194Z,3.60
2019-01-28T11:33:56.198Z,3.52
2019-01-28T11:34:56.220Z,3.49
2019-01-28T11:35:57.425Z,3.62
2019-01-28T11:36:56.234Z,3.52
2019-01-28T11:37:56.229Z,3.56
2019-01-28T11:38:56.225Z,3.63
2019-01-28T11:39:56.147Z,3.64
2019-01-28T11:40:56.107Z,3.55
2019-01-28T11:41:56.160Z,3.73
2019-01-28T11:42:56.083Z,3.64
2019-01-28T11:43:56.085Z,3.69
2019-01-28T11:44:56.103Z,3.76
2019-01-28T11:45:56.047Z,3.73
2019-01-28T11:46:56.105Z,3.74
2019-01-28T11:47:56.022Z,3.72
2019-01-28T11:48:56.045Z,3.63
2019-01-28T11:49:56.204Z,3.80
2019-01-28T11:50:56.465Z,3.78
2019-01-28T11:51:55.978Z,3.81
2019-01-28T11:52:55.967Z,3.81
2019-01-28T11:53:55.952Z,3.90
2019-01-28T11:54:55.961Z,3.90
2019-01-28T11:55:55.930Z,3.98
2019-01-28T11:56:55.929Z,3.91
2019-01-28T11:57:55.909Z,3.98
2019-01-28T11:58:55.900Z,3.94
2019-01-28T11:59:55.908Z,3.91
2019-01-28T12:00:55.877Z,4.02
2019-01-28T12:01:55.865Z,4.06
2019-01-28T12:02:55.855Z,4.00
2019-01-28T12:03:55.842Z,4.08
2019-01-28T12:04:55.855Z,4.03
2019-01-28T12:05:55.823Z,4.09
2019-01-28T12:06:55.808Z,4.10
2019-01-28T12:07:55.796Z,4.03
2019-01-28T12:08:55.787Z,4.13
2019-01-28T12:09:55.793Z,4.16
2019-01-28T12:10:55.765Z,4.18
2019-01-28T12:11:55.752Z,4.17
2019-01-28T12:12:55.743Z,4.08
2019-01-28T12:13:55.731Z,4.16
2019-01-28T12:14:55.738Z,4.16
2019-01-28T12:15:55.714Z,4.21
2019-01-28T12:16:55.742Z,4.21
2019-01-28T12:17:55.687Z,4.21
2019-01-28T12:18:55.678Z,4.27
2019-01-28T12:19:55.687Z,4.27
2019-01-28T12:20:55.657Z,4.34
2019-01-28T12:21:55.642Z,4.31
2019-01-28T12:22:55.633Z,4.41
2019-01-28T12:23:55.620Z,4.38
2019-01-28T12:24:55.626Z,4.42
2019-01-28T12:25:55.601Z,4.38
2019-01-28T12:26:55.585Z,4.42
2019-01-28T12:27:55.575Z,4.41
2019-01-28T12:28:55.564Z,4.54
2019-01-28T12:29:55.575Z,4.54
2019-01-28T12:30:55.544Z,4.54
2019-01-28T12:31:55.530Z,4.53
2019-01-28T12:32:55.532Z,4.54
2019-01-28T12:33:55.507Z,4.51
2019-01-28T12:34:55.517Z,4.49
2019-01-28T12:35:55.497Z,4.46
2019-01-28T12:36:55.477Z,4.48
2019-01-28T12:37:55.463Z,4.56
2019-01-28T12:38:55.459Z,4.54
2019-01-28T12:39:55.461Z,4.61
2019-01-28T12:40:55.430Z,4.67
2019-01-28T12:41:55.418Z,4.63
2019-01-28T12:42:55.410Z,4.53
2019-01-28T12:43:55.401Z,4.57
2019-01-28T12:44:55.412Z,4.61
2019-01-28T12:45:55.373Z,4.56
2019-01-28T12:46:55.362Z,4.57
2019-01-28T12:47:55.353Z,4.63
2019-01-28T12:48:55.346Z,4.54
2019-01-28T12:49:55.349Z,4.64
2019-01-28T12:50:55.318Z,4.63
2019-01-28T12:51:55.326Z,4.61
2019-01-28T12:52:55.305Z,4.63
2019-01-28T12:53:55.288Z,4.71
2019-01-28T12:54:55.294Z,4.71
2019-01-28T12:55:55.268Z,4.78
2019-01-28T12:56:55.250Z,4.69
2019-01-28T12:57:55.239Z,4.69
2019-01-28T12:58:55.230Z,4.75
2019-01-28T12:59:55.237Z,4.72
2019-01-28T13:00:55.486Z,4.66
2019-01-28T13:01:55.197Z,4.67
2019-01-28T13:02:55.187Z,4.57
2019-01-28T13:03:55.172Z,4.66
2019-01-28T13:04:55.181Z,4.63
2019-01-28T13:05:55.156Z,4.77
2019-01-28T13:06:55.155Z,4.66
2019-01-28T13:07:55.126Z,4.75
2019-01-28T13:08:55.116Z,4.69
2019-01-28T13:09:55.124Z,4.67
2019-01-28T13:10:55.095Z,4.72
2019-01-28T13:11:55.081Z,4.64
2019-01-28T13:12:55.073Z,4.64
2019-01-28T13:13:55.066Z,4.66
2019-01-28T13:14:55.080Z,4.54
2019-01-28T13:15:55.036Z,4.69
2019-01-28T13:16:55.025Z,4.69
2019-01-28T13:17:55.018Z,4.75
2019-01-28T13:18:55.017Z,4.66